createdAt,value
2023-09-06T00:01:35.034Z,6.22
2023-09-06T00:04:11.163Z,6.90
2023-09-06T00:06:45.277Z,7.35
2023-09-06T00:09:17.219Z,6.75
2023-09-06T00:11:49.069Z,6.38
2023-09-06T00:14:21.948Z,7.80
2023-09-06T00:16:54.082Z,6.10
2023-09-06T00:19:25.871Z,6.30
2023-09-06T00:22:00.815Z,6.38
2023-09-06T00:24:33.009Z,6.43
2023-09-06T00:27:06.113Z,6.18
2023-09-06T00:29:40.010Z,6.40
2023-09-06T00:32:14.957Z,5.95
2023-09-06T00:34:49.846Z,5.88
2023-09-06T00:37:21.626Z,5.53
2023-09-06T00:39:54.250Z,5.45
2023-09-06T00:42:31.551Z,6.07
2023-09-06T00:45:07.123Z,6.38
2023-09-06T00:47:45.579Z,5.85
2023-09-06T00:50:18.736Z,6.13
2023-09-06T00:52:56.715Z,6.78
2023-09-06T00:55:28.569Z,5.43
2023-09-06T00:58:02.253Z,5.75
2023-09-06T01:00:34.674Z,5.53
2023-09-06T01:03:08.019Z,5.90
2023-09-06T01:05:55.513Z,5.88
2023-09-06T01:08:35.250Z,6.82
2023-09-06T01:11:16.011Z,6.40
2023-09-06T01:13:59.912Z,5.32
2023-09-06T01:16:45.679Z,5.97
2023-09-06T01:19:20.932Z,5.88
2023-09-06T01:22:11.571Z,5.57
2023-09-06T01:24:47.064Z,5.75
2023-09-06T01:27:19.776Z,6.00
2023-09-06T01:29:51.761Z,5.63
2023-09-06T01:32:23.964Z,5.97
2023-09-06T01:34:58.779Z,6.07
2023-09-06T01:37:31.335Z,5.82
2023-09-06T01:40:04.493Z,5.82
2023-09-06T01:42:36.377Z,5.88
2023-09-06T01:45:08.594Z,5.57
2023-09-06T01:47:44.592Z,5.50
2023-09-06T01:50:20.475Z,5.47
2023-09-06T01:52:56.282Z,6.10
2023-09-06T01:55:28.349Z,5.65
2023-09-06T01:58:00.505Z,5.80
2023-09-06T02:00:33.748Z,7.28
2023-09-06T02:03:15.747Z,5.75
2023-09-06T02:05:51.284Z,5.40
2023-09-06T02:08:27.654Z,5.68
2023-09-06T02:10:59.718Z,6.38
2023-09-06T02:13:31.559Z,9.07
2023-09-06T02:16:07.930Z,9.40
2023-09-06T02:18:40.772Z,7.13
2023-09-06T02:21:12.544Z,6.28
2023-09-06T02:23:44.470Z,5.38
2023-09-06T02:26:18.334Z,5.97
2023-09-06T02:28:51.910Z,5.68
2023-09-06T02:31:25.072Z,5.87
2023-09-06T02:33:57.078Z,5.70
2023-09-06T02:36:28.960Z,5.80
2023-09-06T02:39:00.754Z,5.82
2023-09-06T02:41:32.510Z,6.20
2023-09-06T02:44:04.451Z,5.38
2023-09-06T02:46:41.393Z,5.70
2023-09-06T02:49:14.212Z,6.10
2023-09-06T02:51:48.297Z,6.43
2023-09-06T02:54:20.410Z,5.50
2023-09-06T02:56:53.529Z,6.35
2023-09-06T02:59:25.392Z,6.65
2023-09-06T03:02:00.472Z,7.13
2023-09-06T03:07:11.326Z,5.90
2023-09-06T03:09:46.172Z,6.03
2023-09-06T03:12:18.560Z,5.88
2023-09-06T03:14:56.883Z,5.38
2023-09-06T03:17:29.064Z,6.28
2023-09-06T03:20:07.661Z,5.78
2023-09-06T03:22:39.480Z,5.78
2023-09-06T03:25:11.395Z,6.20
2023-09-06T03:27:43.658Z,6.15
2023-09-06T03:30:16.352Z,6.30
2023-09-06T03:32:56.468Z,6.22
2023-09-06T03:35:28.605Z,6.90
2023-09-06T03:38:00.938Z,6.72
2023-09-06T03:40:39.878Z,6.15
2023-09-06T03:43:20.868Z,6.10
2023-09-06T03:45:57.484Z,6.10
2023-09-06T03:48:30.190Z,6.07
2023-09-06T03:51:03.736Z,6.13
2023-09-06T03:53:38.984Z,5.95
2023-09-06T03:56:13.836Z,6.53
2023-09-06T03:58:54.988Z,6.07
2023-09-06T04:01:32.314Z,6.07
2023-09-06T04:04:05.932Z,6.07
2023-09-06T04:06:45.574Z,6.10
2023-09-06T04:09:19.755Z,6.07
2023-09-06T04:11:54.106Z,6.18
2023-09-06T04:14:26.378Z,6.82
2023-09-06T04:17:06.398Z,6.45
2023-09-06T04:19:38.325Z,6.25
2023-09-06T04:22:10.165Z,5.88
2023-09-06T04:24:44.904Z,6.75
2023-09-06T04:27:16.762Z,6.85
2023-09-06T04:29:48.850Z,7.00
2023-09-06T04:32:21.311Z,7.10
2023-09-06T04:34:53.362Z,7.20
2023-09-06T04:37:29.585Z,6.38
2023-09-06T04:40:02.973Z,7.10
2023-09-06T04:42:36.545Z,7.72
2023-09-06T04:45:10.937Z,6.60
2023-09-06T04:47:44.648Z,6.78
2023-09-06T04:50:16.829Z,7.00
2023-09-06T04:52:54.178Z,6.22
2023-09-06T04:55:27.104Z,7.00
2023-09-06T04:58:01.222Z,5.97
2023-09-06T05:00:37.952Z,6.13
2023-09-06T05:03:15.134Z,5.97
2023-09-06T05:05:49.180Z,6.40
2023-09-06T05:08:23.533Z,6.57
2023-09-06T05:10:58.135Z,6.25
2023-09-06T05:13:31.531Z,6.07
2023-09-06T05:16:04.419Z,6.70
2023-09-06T05:18:41.298Z,5.65
2023-09-06T05:21:13.162Z,6.15
2023-09-06T05:23:45.093Z,6.18
2023-09-06T05:26:17.496Z,6.47
2023-09-06T05:31:23.658Z,6.05
2023-09-06T05:34:00.579Z,6.50
2023-09-06T05:36:32.496Z,6.00
2023-09-06T05:39:07.551Z,5.72
2023-09-06T05:41:41.245Z,5.75
2023-09-06T05:44:13.265Z,5.68
2023-09-06T05:46:48.552Z,5.38
2023-09-06T05:49:23.543Z,6.00
2023-09-06T05:51:55.884Z,6.05
2023-09-06T05:54:28.020Z,5.90
2023-09-06T05:57:00.176Z,6.05
2023-09-06T05:59:33.784Z,6.45
2023-09-06T06:02:05.787Z,5.90
2023-09-06T06:04:38.175Z,6.03
2023-09-06T06:07:18.183Z,6.00
2023-09-06T06:09:50.224Z,5.50
2023-09-06T06:12:23.922Z,5.90
2023-09-06T06:14:58.329Z,5.97
2023-09-06T06:20:08.118Z,5.70
2023-09-06T06:22:41.504Z,6.10
2023-09-06T06:25:13.638Z,6.00
2023-09-06T06:27:45.614Z,5.85
2023-09-06T06:30:18.964Z,5.55
2023-09-06T06:32:50.870Z,5.95
2023-09-06T06:35:22.767Z,6.35
2023-09-06T06:37:55.137Z,5.57
2023-09-06T06:40:27.423Z,6.05
2023-09-06T06:42:59.188Z,5.88
2023-09-06T06:45:31.033Z,6.07
2023-09-06T06:48:02.934Z,6.15
2023-09-06T06:50:34.872Z,6.07
2023-09-06T06:53:09.771Z,6.80
2023-09-06T06:55:44.237Z,6.10
2023-09-06T06:58:16.200Z,6.28
2023-09-06T07:00:48.034Z,6.10
2023-09-06T07:03:20.281Z,6.30
2023-09-06T07:05:52.142Z,6.50
2023-09-06T07:08:27.967Z,6.20
2023-09-06T07:11:00.814Z,6.68
2023-09-06T07:13:32.996Z,6.20
2023-09-06T07:16:06.624Z,5.95
2023-09-06T07:18:38.692Z,6.57
2023-09-06T07:21:13.836Z,5.97
2023-09-06T07:23:49.171Z,6.00
2023-09-06T07:26:21.278Z,5.63
2023-09-06T07:28:53.241Z,8.32
2023-09-06T07:31:25.075Z,6.32
2023-09-06T07:33:56.925Z,6.90
2023-09-06T07:36:30.724Z,6.28
2023-09-06T07:39:06.580Z,6.20
2023-09-06T07:41:41.201Z,7.00
2023-09-06T07:44:16.992Z,6.80
2023-09-06T07:46:50.013Z,6.43
2023-09-06T07:49:35.025Z,6.70
2023-09-06T07:52:09.633Z,6.13
2023-09-06T07:54:48.251Z,6.63
2023-09-06T07:57:20.687Z,6.57
2023-09-06T07:59:52.467Z,6.35
2023-09-06T08:02:27.049Z,5.80
2023-09-06T08:05:04.177Z,5.80
2023-09-06T08:07:37.756Z,6.85
2023-09-06T08:10:11.181Z,6.45
2023-09-06T08:12:44.538Z,7.40
2023-09-06T08:15:16.424Z,7.07
2023-09-06T08:17:48.838Z,7.30
2023-09-06T08:20:30.113Z,4.50
2023-09-06T08:23:05.698Z,4.93
2023-09-06T08:25:37.803Z,4.13
2023-09-06T08:28:09.641Z,4.60
2023-09-06T08:30:43.849Z,4.00
2023-09-06T08:33:15.884Z,3.80
2023-09-06T08:35:53.820Z,4.07
2023-09-06T08:38:29.462Z,4.10
2023-09-06T08:41:09.997Z,4.70
2023-09-06T08:43:45.176Z,5.07
2023-09-06T08:46:30.980Z,4.78
2023-09-06T08:49:06.913Z,4.43
2023-09-06T08:51:40.330Z,4.60
2023-09-06T08:54:15.521Z,4.85
2023-09-06T08:56:47.422Z,4.60
2023-09-06T08:59:25.733Z,3.72
2023-09-06T09:01:58.557Z,3.80
2023-09-06T09:04:33.177Z,4.63
2023-09-06T09:07:05.756Z,4.15
2023-09-06T09:10:15.137Z,6.32
2023-09-06T09:12:50.134Z,5.00
2023-09-06T09:17:59.917Z,3.90
2023-09-06T09:20:33.393Z,4.43
2023-09-06T09:23:13.795Z,4.68
2023-09-06T09:25:52.482Z,3.60
2023-09-06T09:28:33.304Z,3.45
2023-09-06T09:31:07.068Z,4.15
2023-09-06T09:33:39.437Z,4.30
2023-09-06T09:36:17.608Z,3.67
2023-09-06T09:38:56.902Z,4.32
2023-09-06T09:41:34.602Z,3.80
2023-09-06T09:44:16.508Z,4.45
2023-09-06T09:46:49.123Z,4.05
2023-09-06T09:49:23.805Z,4.05
2023-09-06T09:51:55.591Z,3.92
2023-09-06T09:54:33.654Z,4.43
2023-09-06T09:57:07.649Z,4.28
2023-09-06T10:02:22.497Z,3.92
2023-09-06T10:05:01.775Z,3.65
2023-09-06T10:07:48.904Z,3.78
2023-09-06T10:10:23.745Z,4.05
2023-09-06T10:13:05.371Z,3.40
2023-09-06T10:15:40.908Z,3.60
2023-09-06T10:18:13.529Z,3.35
2023-09-06T10:20:48.641Z,4.07
2023-09-06T10:23:22.374Z,2.97
2023-09-06T10:25:55.722Z,3.28
2023-09-06T10:28:33.501Z,3.63
2023-09-06T10:31:11.708Z,3.40
2023-09-06T10:33:54.812Z,2.90
2023-09-06T10:36:30.067Z,3.10
2023-09-06T10:39:05.572Z,2.95
2023-09-06T10:42:15.027Z,3.53
2023-09-06T10:45:11.621Z,3.88
2023-09-06T10:47:46.739Z,3.78
2023-09-06T10:50:21.484Z,3.20
2023-09-06T10:53:00.237Z,4.07
2023-09-06T10:55:47.646Z,3.40
2023-09-06T10:58:26.222Z,3.60
2023-09-06T11:01:16.328Z,3.20
2023-09-06T11:03:51.562Z,3.33
2023-09-06T11:06:25.950Z,3.35
2023-09-06T11:09:09.278Z,3.25
2023-09-06T11:11:41.868Z,2.97
2023-09-06T11:14:13.660Z,3.10
2023-09-06T11:16:49.671Z,3.27
2023-09-06T11:19:29.659Z,3.22
2023-09-06T11:22:09.310Z,2.80
2023-09-06T11:24:42.452Z,3.15
2023-09-06T11:27:28.452Z,2.83
2023-09-06T11:30:33.884Z,3.10
2023-09-06T11:33:09.067Z,2.75
2023-09-06T11:35:49.718Z,3.13
2023-09-06T11:38:26.704Z,3.13
2023-09-06T11:40:59.975Z,3.20
2023-09-06T11:43:38.974Z,3.55
2023-09-06T11:49:22.623Z,3.33
2023-09-06T11:51:58.197Z,3.05
2023-09-06T11:54:33.041Z,3.13
2023-09-06T11:57:11.890Z,3.13
2023-09-06T11:59:44.909Z,3.00
2023-09-06T12:02:16.987Z,3.45
2023-09-06T12:04:53.964Z,3.30
2023-09-06T12:07:28.620Z,3.05
2023-09-06T12:10:04.679Z,3.47
2023-09-06T12:12:45.255Z,3.30
2023-09-06T12:15:21.637Z,3.22
2023-09-06T12:17:53.524Z,2.88
2023-09-06T12:20:25.970Z,3.55
2023-09-06T12:22:59.116Z,3.15
2023-09-06T12:25:31.662Z,3.30
2023-09-06T12:28:04.284Z,3.13
2023-09-06T12:30:44.800Z,2.95
2023-09-06T12:33:19.532Z,2.97
2023-09-06T12:36:02.420Z,3.30
2023-09-06T12:38:34.232Z,3.40
2023-09-06T12:41:06.200Z,3.17
2023-09-06T12:43:38.485Z,3.50
2023-09-06T12:46:12.688Z,3.92
2023-09-06T12:48:44.960Z,3.10
2023-09-06T12:51:21.725Z,3.20
2023-09-06T12:53:53.656Z,3.13
2023-09-06T12:56:25.463Z,3.00
2023-09-06T12:58:58.519Z,3.42
2023-09-06T13:01:58.662Z,3.08
2023-09-06T13:04:30.548Z,3.40
2023-09-06T13:07:05.376Z,3.10
2023-09-06T13:09:37.750Z,3.53
2023-09-06T13:12:17.129Z,2.90
2023-09-06T13:14:49.070Z,3.58
2023-09-06T13:17:23.950Z,3.22
2023-09-06T13:19:58.879Z,3.08
2023-09-06T13:22:32.203Z,3.15
2023-09-06T13:25:05.068Z,3.33
2023-09-06T13:27:39.855Z,3.00
2023-09-06T13:30:12.221Z,2.90
2023-09-06T13:32:46.701Z,3.35
2023-09-06T13:35:19.559Z,3.20
2023-09-06T13:37:51.463Z,2.80
2023-09-06T13:40:23.278Z,3.03
2023-09-06T13:42:57.030Z,3.10
2023-09-06T13:45:30.683Z,2.83
2023-09-06T13:50:34.836Z,3.22
2023-09-06T13:53:06.600Z,2.83
2023-09-06T13:55:44.056Z,3.00
2023-09-06T13:58:16.061Z,3.50
2023-09-06T14:00:54.749Z,3.40
2023-09-06T14:03:32.907Z,2.80
2023-09-06T14:06:06.854Z,2.78
2023-09-06T14:11:10.667Z,2.70
2023-09-06T14:13:42.634Z,2.88
2023-09-06T14:16:14.532Z,2.80
2023-09-06T14:18:48.341Z,2.88
2023-09-06T14:21:21.940Z,2.97
2023-09-06T14:23:53.919Z,2.85
2023-09-06T14:26:25.776Z,2.90
2023-09-06T14:28:57.880Z,2.95
2023-09-06T14:31:30.099Z,2.97
2023-09-06T14:34:03.354Z,2.67
2023-09-06T14:36:38.325Z,2.58
2023-09-06T14:39:10.177Z,3.00
2023-09-06T14:41:44.314Z,2.72
2023-09-06T14:46:49.563Z,2.53
2023-09-06T14:49:21.640Z,3.13
2023-09-06T14:51:54.322Z,2.97
2023-09-06T14:54:29.964Z,3.08
2023-09-06T14:57:01.848Z,2.70
2023-09-06T14:59:39.709Z,3.22
2023-09-06T15:02:11.813Z,2.90
2023-09-06T15:04:43.568Z,3.17
2023-09-06T15:07:15.363Z,3.67
2023-09-06T15:09:50.217Z,2.80
2023-09-06T15:12:22.050Z,3.10
2023-09-06T15:14:54.524Z,3.25
2023-09-06T15:17:26.373Z,3.25
2023-09-06T15:19:58.154Z,3.60
2023-09-06T15:22:38.604Z,2.72
2023-09-06T15:25:12.937Z,2.67
2023-09-06T15:27:44.756Z,3.20
2023-09-06T15:30:16.626Z,3.10
2023-09-06T15:32:48.493Z,3.25
2023-09-06T15:35:29.073Z,3.10
2023-09-06T15:38:04.864Z,3.05
2023-09-06T15:40:36.924Z,2.70
2023-09-06T15:43:09.107Z,3.22
2023-09-06T15:45:41.062Z,2.60
2023-09-06T15:48:15.873Z,2.83
2023-09-06T15:50:48.213Z,2.72
2023-09-06T15:53:22.873Z,2.85
2023-09-06T15:55:57.552Z,2.85
2023-09-06T15:58:29.648Z,3.03
2023-09-06T16:01:05.600Z,2.85
2023-09-06T16:03:38.078Z,2.55
2023-09-06T16:06:09.937Z,2.80
2023-09-06T16:08:41.830Z,2.90
2023-09-06T16:11:13.617Z,3.13
2023-09-06T16:13:45.428Z,3.30
2023-09-06T16:16:19.300Z,3.08
2023-09-06T16:18:52.676Z,2.97
2023-09-06T16:21:26.991Z,2.83
2023-09-06T16:24:03.330Z,3.10
2023-09-06T16:26:35.427Z,3.22
2023-09-06T16:29:12.037Z,2.95
2023-09-06T16:31:44.889Z,3.20
2023-09-06T16:34:22.662Z,3.15
2023-09-06T16:36:56.588Z,2.65
2023-09-06T16:39:28.384Z,3.10
2023-09-06T16:42:01.293Z,3.33
2023-09-06T16:44:34.417Z,3.20
2023-09-06T16:47:08.678Z,3.03
2023-09-06T16:49:43.741Z,3.15
2023-09-06T16:52:15.599Z,2.95
2023-09-06T16:54:47.425Z,2.95
2023-09-06T16:57:19.142Z,3.20
2023-09-06T16:59:55.225Z,2.88
2023-09-06T17:02:27.080Z,2.50
2023-09-06T17:04:58.876Z,2.72
2023-09-06T17:07:30.657Z,3.30
2023-09-06T17:10:08.890Z,2.85
2023-09-06T17:12:41.035Z,3.05
2023-09-06T17:15:19.715Z,2.85
2023-09-06T17:17:51.766Z,3.38
2023-09-06T17:20:24.090Z,3.78
2023-09-06T17:22:58.838Z,4.32
2023-09-06T17:25:32.754Z,3.20
2023-09-06T17:28:06.090Z,3.38
2023-09-06T17:30:39.303Z,3.27
2023-09-06T17:33:14.445Z,3.30
2023-09-06T17:35:49.705Z,3.08
2023-09-06T17:38:22.152Z,3.28
2023-09-06T17:40:54.662Z,3.25
2023-09-06T17:43:29.328Z,3.75
2023-09-06T17:46:02.376Z,3.40
2023-09-06T17:48:34.749Z,5.38
2023-09-06T17:51:10.569Z,3.60
2023-09-06T17:53:45.539Z,3.55
2023-09-06T17:56:17.844Z,3.90
2023-09-06T17:58:54.161Z,3.10
2023-09-06T18:01:27.217Z,4.60
2023-09-06T18:03:59.870Z,4.70
2023-09-06T18:06:34.842Z,4.20
2023-09-06T18:09:09.105Z,5.40
2023-09-06T18:11:41.952Z,4.97
2023-09-06T18:14:14.303Z,5.53
2023-09-06T18:16:48.904Z,5.40
2023-09-06T18:19:26.592Z,4.95
2023-09-06T18:21:58.519Z,4.97
2023-09-06T18:24:33.215Z,4.85
2023-09-06T18:27:08.558Z,5.30
2023-09-06T18:29:40.991Z,4.93
2023-09-06T18:32:15.079Z,4.68
2023-09-06T18:34:47.500Z,4.90
2023-09-06T18:37:22.353Z,5.10
2023-09-06T18:40:00.174Z,4.80
2023-09-06T18:42:31.976Z,4.85
2023-09-06T18:45:03.960Z,4.20
2023-09-06T18:47:44.930Z,4.57
2023-09-06T18:50:19.020Z,5.38
2023-09-06T18:52:52.761Z,5.07
2023-09-06T18:55:24.833Z,4.43
2023-09-06T18:58:06.036Z,4.88
2023-09-06T19:00:42.244Z,4.47
2023-09-06T19:03:15.000Z,5.10
2023-09-06T19:05:47.661Z,5.10
2023-09-06T19:08:19.878Z,4.72
2023-09-06T19:10:51.773Z,5.25
2023-09-06T19:13:23.962Z,4.63
2023-09-06T19:15:59.817Z,4.65
2023-09-06T19:18:31.815Z,4.97
2023-09-06T19:21:03.962Z,5.88
2023-09-06T19:23:37.537Z,6.15
2023-09-06T19:26:10.155Z,5.45
2023-09-06T19:28:41.892Z,5.40
2023-09-06T19:31:13.898Z,5.05
2023-09-06T19:33:45.788Z,4.97
2023-09-06T19:36:18.095Z,5.20
2023-09-06T19:38:49.965Z,5.05
2023-09-06T19:41:22.144Z,5.05
2023-09-06T19:43:54.337Z,5.55
2023-09-06T19:46:26.716Z,4.78
2023-09-06T19:49:06.939Z,5.30
2023-09-06T19:51:41.247Z,5.20
2023-09-06T19:54:13.078Z,6.15
2023-09-06T19:56:44.970Z,5.90
2023-09-06T19:59:17.124Z,6.35
2023-09-06T20:01:51.495Z,6.03
2023-09-06T20:04:23.902Z,6.07
2023-09-06T20:06:56.094Z,5.82
2023-09-06T20:09:31.959Z,5.82
2023-09-06T20:12:08.068Z,5.70
2023-09-06T20:14:41.336Z,5.45
2023-09-06T20:17:13.175Z,6.30
2023-09-06T20:19:49.388Z,6.32
2023-09-06T20:22:21.256Z,5.97
2023-09-06T20:24:53.142Z,5.88
2023-09-06T20:27:26.587Z,6.20
2023-09-06T20:29:58.521Z,6.03
2023-09-06T20:32:30.375Z,5.97
2023-09-06T20:35:02.238Z,5.75
2023-09-06T20:37:34.027Z,6.18
2023-09-06T20:40:07.885Z,6.22
2023-09-06T20:42:39.746Z,6.20
2023-09-06T20:45:11.501Z,7.03
2023-09-06T20:47:43.722Z,6.28
2023-09-06T20:50:20.709Z,5.68
2023-09-06T20:52:52.464Z,6.18
2023-09-06T20:55:24.288Z,6.80
2023-09-06T20:57:59.129Z,6.35
2023-09-06T21:00:31.038Z,5.70
2023-09-06T21:03:03.824Z,5.72
2023-09-06T21:05:38.507Z,5.47
2023-09-06T21:08:12.900Z,7.22
2023-09-06T21:13:16.915Z,6.53
2023-09-06T21:15:53.306Z,6.40
2023-09-06T21:18:25.222Z,6.60
2023-09-06T21:20:59.971Z,6.65
2023-09-06T21:23:32.254Z,6.35
2023-09-06T21:26:13.526Z,6.45
2023-09-06T21:28:45.220Z,6.53
2023-09-06T21:31:17.080Z,6.60
2023-09-06T21:33:49.658Z,6.38
2023-09-06T21:36:27.658Z,6.15
2023-09-06T21:39:00.166Z,6.07
2023-09-06T21:41:32.748Z,5.95
2023-09-06T21:44:04.789Z,5.82
2023-09-06T21:46:36.718Z,6.22
2023-09-06T21:49:08.622Z,6.60
2023-09-06T21:51:47.561Z,6.50
2023-09-06T21:54:24.445Z,6.20
2023-09-06T21:56:56.356Z,5.85
2023-09-06T21:59:28.104Z,5.88
2023-09-06T22:01:59.786Z,6.93
2023-09-06T22:04:50.388Z,6.20
2023-09-06T22:07:40.767Z,9.73
2023-09-06T22:10:31.212Z,6.63
2023-09-06T22:13:24.467Z,6.28
2023-09-06T22:15:56.613Z,6.13
2023-09-06T22:18:30.205Z,6.18
2023-09-06T22:21:06.871Z,6.20
2023-09-06T22:23:41.664Z,6.10
2023-09-06T22:26:13.451Z,6.10
2023-09-06T22:28:45.281Z,5.90
2023-09-06T22:31:20.571Z,5.70
2023-09-06T22:33:55.136Z,5.78
2023-09-06T22:38:58.968Z,6.20
2023-09-06T22:41:31.824Z,6.38
2023-09-06T22:44:04.068Z,6.32
2023-09-06T22:46:37.998Z,7.10
2023-09-06T22:49:09.854Z,6.65
2023-09-06T22:51:43.509Z,6.13
2023-09-06T22:54:15.418Z,7.07
2023-09-06T22:56:47.403Z,6.97
2023-09-06T22:59:19.203Z,6.35
2023-09-06T23:01:52.330Z,7.10
2023-09-06T23:04:24.295Z,6.38
2023-09-06T23:06:56.637Z,6.85
2023-09-06T23:09:31.051Z,6.72
2023-09-06T23:12:05.526Z,6.63
2023-09-06T23:17:12.230Z,6.30
2023-09-06T23:19:49.674Z,6.38
2023-09-06T23:22:25.175Z,7.10
2023-09-06T23:24:58.224Z,6.80
2023-09-06T23:27:30.884Z,6.20
2023-09-06T23:30:09.723Z,7.35
2023-09-06T23:32:51.773Z,6.40
2023-09-06T23:35:23.872Z,7.10
2023-09-06T23:37:59.382Z,6.60
2023-09-06T23:40:33.219Z,6.82
2023-09-06T23:43:08.991Z,6.63
2023-09-06T23:45:46.022Z,7.13
2023-09-06T23:48:21.054Z,7.38
2023-09-06T23:50:56.823Z,7.28
2023-09-06T23:53:28.613Z,7.03
2023-09-06T23:56:04.710Z,7.18
2023-09-06T23:58:38.964Z,7.28
